sensor_id;sensor_type;location;lat;lon;timestamp;P1;durP1;ratioP1;P2;durP2;ratioP2
71046;SDS011;58703;48.978;8.982;2022-08-05T00:00:10;3.28;;;2.40;;
71046;SDS011;58703;48.978;8.982;2022-08-05T00:02:36;2.73;;;1.90;;
71046;SDS011;58703;48.978;8.982;2022-08-05T00:05:02;2.40;;;2.03;;
71046;SDS011;58703;48.978;8.982;2022-08-05T00:07:29;7.83;;;3.03;;
71046;SDS011;58703;48.978;8.982;2022-08-05T00:09:55;2.70;;;2.05;;
71046;SDS011;58703;48.978;8.982;2022-08-05T00:12:21;4.03;;;2.30;;
71046;SDS011;58703;48.978;8.982;2022-08-05T00:14:47;4.10;;;2.17;;
71046;SDS011;58703;48.978;8.982;2022-08-05T00:17:12;2.03;;;1.90;;
71046;SDS011;58703;48.978;8.982;2022-08-05T00:19:38;4.27;;;2.40;;
71046;SDS011;58703;48.978;8.982;2022-08-05T00:22:03;3.17;;;2.20;;
71046;SDS011;58703;48.978;8.982;2022-08-05T00:24:30;3.88;;;2.00;;
71046;SDS011;58703;48.978;8.982;2022-08-05T00:26:56;6.75;;;2.17;;
71046;SDS011;58703;48.978;8.982;2022-08-05T00:29:21;3.37;;;2.00;;
71046;SDS011;58703;48.978;8.982;2022-08-05T00:31:47;4.28;;;2.45;;
71046;SDS011;58703;48.978;8.982;2022-08-05T00:34:13;3.20;;;2.30;;
71046;SDS011;58703;48.978;8.982;2022-08-05T00:36:39;2.80;;;1.67;;
71046;SDS011;58703;48.978;8.982;2022-08-05T00:39:04;3.17;;;2.23;;
71046;SDS011;58703;48.978;8.982;2022-08-05T00:41:32;4.60;;;2.00;;
71046;SDS011;58703;48.978;8.982;2022-08-05T00:43:59;5.75;;;2.00;;
71046;SDS011;58703;48.978;8.982;2022-08-05T00:46:25;4.57;;;1.88;;
71046;SDS011;58703;48.978;8.982;2022-08-05T00:48:51;4.60;;;1.83;;
71046;SDS011;58703;48.978;8.982;2022-08-05T00:51:21;3.55;;;1.85;;
71046;SDS011;58703;48.978;8.982;2022-08-05T00:53:46;4.05;;;1.88;;
71046;SDS011;58703;48.978;8.982;2022-08-05T00:56:16;12.68;;;2.00;;
71046;SDS011;58703;48.978;8.982;2022-08-05T00:58:42;6.05;;;1.90;;
71046;SDS011;58703;48.978;8.982;2022-08-05T01:01:09;7.10;;;2.13;;
71046;SDS011;58703;48.978;8.982;2022-08-05T01:03:36;4.00;;;2.13;;
71046;SDS011;58703;48.978;8.982;2022-08-05T01:06:02;5.70;;;2.03;;
71046;SDS011;58703;48.978;8.982;2022-08-05T01:08:29;7.57;;;2.17;;
71046;SDS011;58703;48.978;8.982;2022-08-05T01:10:56;3.67;;;2.00;;
71046;SDS011;58703;48.978;8.982;2022-08-05T01:16:24;4.90;;;2.15;;
71046;SDS011;58703;48.978;8.982;2022-08-05T01:18:57;4.20;;;1.83;;
71046;SDS011;58703;48.978;8.982;2022-08-05T01:26:58;3.97;;;2.27;;
71046;SDS011;58703;48.978;8.982;2022-08-05T01:29:47;7.78;;;2.20;;
71046;SDS011;58703;48.978;8.982;2022-08-05T01:32:20;6.40;;;2.75;;
71046;SDS011;58703;48.978;8.982;2022-08-05T01:34:53;7.32;;;2.30;;
71046;SDS011;58703;48.978;8.982;2022-08-05T01:40:20;3.57;;;1.93;;
71046;SDS011;58703;48.978;8.982;2022-08-05T01:42:50;3.97;;;2.25;;
71046;SDS011;58703;48.978;8.982;2022-08-05T01:45:18;8.07;;;2.65;;
71046;SDS011;58703;48.978;8.982;2022-08-05T01:47:47;8.93;;;2.47;;
71046;SDS011;58703;48.978;8.982;2022-08-05T01:50:16;4.28;;;2.80;;
71046;SDS011;58703;48.978;8.982;2022-08-05T01:52:45;7.57;;;2.23;;
71046;SDS011;58703;48.978;8.982;2022-08-05T01:55:13;8.07;;;2.53;;
71046;SDS011;58703;48.978;8.982;2022-08-05T01:57:42;7.57;;;2.58;;
71046;SDS011;58703;48.978;8.982;2022-08-05T02:00:10;7.63;;;2.30;;
71046;SDS011;58703;48.978;8.982;2022-08-05T02:02:37;6.40;;;2.20;;
71046;SDS011;58703;48.978;8.982;2022-08-05T02:05:06;8.63;;;2.50;;
71046;SDS011;58703;48.978;8.982;2022-08-05T02:07:37;10.27;;;2.70;;
71046;SDS011;58703;48.978;8.982;2022-08-05T02:10:04;4.57;;;2.63;;
71046;SDS011;58703;48.978;8.982;2022-08-05T02:15:07;10.82;;;3.20;;
71046;SDS011;58703;48.978;8.982;2022-08-05T02:17:44;7.47;;;2.73;;
71046;SDS011;58703;48.978;8.982;2022-08-05T02:20:17;4.88;;;2.17;;
71046;SDS011;58703;48.978;8.982;2022-08-05T02:22:45;3.88;;;2.47;;
71046;SDS011;58703;48.978;8.982;2022-08-05T02:25:17;4.30;;;2.70;;
71046;SDS011;58703;48.978;8.982;2022-08-05T02:27:47;5.07;;;2.20;;
71046;SDS011;58703;48.978;8.982;2022-08-05T02:30:17;8.27;;;3.00;;
71046;SDS011;58703;48.978;8.982;2022-08-05T02:32:45;7.15;;;2.50;;
71046;SDS011;58703;48.978;8.982;2022-08-05T02:35:15;5.13;;;2.92;;
71046;SDS011;58703;48.978;8.982;2022-08-05T02:37:45;8.52;;;3.08;;
71046;SDS011;58703;48.978;8.982;2022-08-05T02:40:12;7.75;;;2.80;;
71046;SDS011;58703;48.978;8.982;2022-08-05T02:42:40;6.73;;;3.00;;
71046;SDS011;58703;48.978;8.982;2022-08-05T02:45:07;5.38;;;2.72;;
71046;SDS011;58703;48.978;8.982;2022-08-05T02:47:33;5.78;;;2.78;;
71046;SDS011;58703;48.978;8.982;2022-08-05T02:50:00;11.45;;;2.60;;
71046;SDS011;58703;48.978;8.982;2022-08-05T02:52:27;4.95;;;3.03;;
71046;SDS011;58703;48.978;8.982;2022-08-05T02:54:55;7.77;;;3.20;;
71046;SDS011;58703;48.978;8.982;2022-08-05T02:57:21;7.68;;;3.20;;
71046;SDS011;58703;48.978;8.982;2022-08-05T02:59:48;7.57;;;3.03;;
71046;SDS011;58703;48.978;8.982;2022-08-05T03:02:16;7.40;;;2.65;;
71046;SDS011;58703;48.978;8.982;2022-08-05T03:04:45;7.95;;;3.25;;
71046;SDS011;58703;48.978;8.982;2022-08-05T03:07:12;9.70;;;2.90;;
71046;SDS011;58703;48.978;8.982;2022-08-05T03:09:38;4.80;;;2.90;;
71046;SDS011;58703;48.978;8.982;2022-08-05T03:12:06;9.68;;;3.33;;
71046;SDS011;58703;48.978;8.982;2022-08-05T03:14:32;5.30;;;3.13;;
71046;SDS011;58703;48.978;8.982;2022-08-05T03:16:58;6.13;;;2.93;;
71046;SDS011;58703;48.978;8.982;2022-08-05T03:19:26;7.65;;;3.40;;
71046;SDS011;58703;48.978;8.982;2022-08-05T03:21:51;9.57;;;3.00;;
71046;SDS011;58703;48.978;8.982;2022-08-05T03:24:18;6.00;;;3.00;;
71046;SDS011;58703;48.978;8.982;2022-08-05T03:26:44;6.43;;;3.33;;
71046;SDS011;58703;48.978;8.982;2022-08-05T03:29:11;6.28;;;2.67;;
71046;SDS011;58703;48.978;8.982;2022-08-05T03:31:36;5.13;;;2.70;;
71046;SDS011;58703;48.978;8.982;2022-08-05T03:34:02;8.23;;;3.35;;
71046;SDS011;58703;48.978;8.982;2022-08-05T03:36:30;8.98;;;3.22;;
71046;SDS011;58703;48.978;8.982;2022-08-05T03:38:56;9.43;;;3.63;;
71046;SDS011;58703;48.978;8.982;2022-08-05T03:41:21;7.47;;;3.13;;
71046;SDS011;58703;48.978;8.982;2022-08-05T03:43:47;8.85;;;3.60;;
71046;SDS011;58703;48.978;8.982;2022-08-05T03:46:13;7.43;;;3.27;;
71046;SDS011;58703;48.978;8.982;2022-08-05T03:48:39;6.43;;;3.22;;
71046;SDS011;58703;48.978;8.982;2022-08-05T03:53:48;8.63;;;3.40;;
71046;SDS011;58703;48.978;8.982;2022-08-05T03:56:32;9.25;;;3.10;;
71046;SDS011;58703;48.978;8.982;2022-08-05T03:59:27;5.72;;;2.80;;
71046;SDS011;58703;48.978;8.982;2022-08-05T04:01:56;13.48;;;3.20;;
71046;SDS011;58703;48.978;8.982;2022-08-05T04:04:25;5.63;;;3.13;;
71046;SDS011;58703;48.978;8.982;2022-08-05T04:06:53;3.90;;;2.60;;
71046;SDS011;58703;48.978;8.982;2022-08-05T04:09:19;8.27;;;3.30;;
71046;SDS011;58703;48.978;8.982;2022-08-05T04:11:45;5.85;;;3.30;;
71046;SDS011;58703;48.978;8.982;2022-08-05T04:14:12;8.70;;;3.53;;
71046;SDS011;58703;48.978;8.982;2022-08-05T04:16:37;7.22;;;3.13;;
71046;SDS011;58703;48.978;8.982;2022-08-05T04:19:03;6.90;;;3.47;;
71046;SDS011;58703;48.978;8.982;2022-08-05T04:21:29;14.10;;;3.77;;
71046;SDS011;58703;48.978;8.982;2022-08-05T04:23:55;7.65;;;3.97;;
71046;SDS011;58703;48.978;8.982;2022-08-05T04:26:23;8.35;;;3.22;;
71046;SDS011;58703;48.978;8.982;2022-08-05T04:28:49;6.30;;;3.47;;
71046;SDS011;58703;48.978;8.982;2022-08-05T04:31:14;8.07;;;3.47;;
71046;SDS011;58703;48.978;8.982;2022-08-05T04:33:40;6.20;;;3.33;;
71046;SDS011;58703;48.978;8.982;2022-08-05T04:36:06;8.20;;;3.27;;
71046;SDS011;58703;48.978;8.982;2022-08-05T04:38:35;7.00;;;3.45;;
71046;SDS011;58703;48.978;8.982;2022-08-05T04:41:01;5.55;;;3.22;;
71046;SDS011;58703;48.978;8.982;2022-08-05T04:43:26;11.27;;;4.00;;
71046;SDS011;58703;48.978;8.982;2022-08-05T04:45:52;12.32;;;4.00;;
71046;SDS011;58703;48.978;8.982;2022-08-05T04:48:17;6.77;;;3.33;;
71046;SDS011;58703;48.978;8.982;2022-08-05T04:50:46;6.70;;;4.07;;
71046;SDS011;58703;48.978;8.982;2022-08-05T04:53:15;7.95;;;3.95;;
71046;SDS011;58703;48.978;8.982;2022-08-05T04:55:46;8.60;;;3.35;;
71046;SDS011;58703;48.978;8.982;2022-08-05T04:58:14;11.68;;;3.85;;
71046;SDS011;58703;48.978;8.982;2022-08-05T05:00:40;11.13;;;3.97;;
71046;SDS011;58703;48.978;8.982;2022-08-05T05:03:07;7.37;;;3.93;;
71046;SDS011;58703;48.978;8.982;2022-08-05T05:05:35;6.32;;;3.53;;
71046;SDS011;58703;48.978;8.982;2022-08-05T05:08:02;6.65;;;3.80;;
71046;SDS011;58703;48.978;8.982;2022-08-05T05:10:30;6.18;;;3.90;;
71046;SDS011;58703;48.978;8.982;2022-08-05T05:13:09;8.18;;;3.67;;
71046;SDS011;58703;48.978;8.982;2022-08-05T05:15:39;8.30;;;3.70;;
71046;SDS011;58703;48.978;8.982;2022-08-05T05:18:06;6.05;;;3.72;;
71046;SDS011;58703;48.978;8.982;2022-08-05T05:20:34;7.13;;;4.15;;
71046;SDS011;58703;48.978;8.982;2022-08-05T05:23:01;7.53;;;4.20;;
71046;SDS011;58703;48.978;8.982;2022-08-05T05:25:30;8.30;;;4.70;;
71046;SDS011;58703;48.978;8.982;2022-08-05T05:27:56;8.57;;;4.13;;
71046;SDS011;58703;48.978;8.982;2022-08-05T05:30:22;8.18;;;4.55;;
71046;SDS011;58703;48.978;8.982;2022-08-05T05:32:49;7.00;;;4.60;;
71046;SDS011;58703;48.978;8.982;2022-08-05T05:35:15;8.73;;;4.50;;
71046;SDS011;58703;48.978;8.982;2022-08-05T05:37:51;11.65;;;4.22;;
71046;SDS011;58703;48.978;8.982;2022-08-05T05:40:21;7.13;;;4.38;;
71046;SDS011;58703;48.978;8.982;2022-08-05T05:42:49;8.20;;;4.53;;
71046;SDS011;58703;48.978;8.982;2022-08-05T05:45:16;6.10;;;4.25;;
71046;SDS011;58703;48.978;8.982;2022-08-05T05:47:43;7.27;;;4.17;;
71046;SDS011;58703;48.978;8.982;2022-08-05T05:50:09;11.80;;;4.82;;
71046;SDS011;58703;48.978;8.982;2022-08-05T05:52:39;7.07;;;4.18;;
71046;SDS011;58703;48.978;8.982;2022-08-05T05:55:07;6.35;;;4.38;;
71046;SDS011;58703;48.978;8.982;2022-08-05T05:57:34;7.20;;;4.13;;
71046;SDS011;58703;48.978;8.982;2022-08-05T06:00:01;7.05;;;3.88;;
71046;SDS011;58703;48.978;8.982;2022-08-05T06:02:28;6.32;;;4.53;;
71046;SDS011;58703;48.978;8.982;2022-08-05T06:04:54;9.03;;;4.10;;
71046;SDS011;58703;48.978;8.982;2022-08-05T06:07:21;8.68;;;3.40;;
71046;SDS011;58703;48.978;8.982;2022-08-05T06:09:46;4.63;;;3.53;;
71046;SDS011;58703;48.978;8.982;2022-08-05T06:12:12;6.60;;;3.63;;
71046;SDS011;58703;48.978;8.982;2022-08-05T06:14:38;18.17;;;3.50;;
71046;SDS011;58703;48.978;8.982;2022-08-05T06:17:03;7.53;;;3.80;;
71046;SDS011;58703;48.978;8.982;2022-08-05T06:19:29;6.18;;;2.95;;
71046;SDS011;58703;48.978;8.982;2022-08-05T06:21:55;6.28;;;2.83;;
71046;SDS011;58703;48.978;8.982;2022-08-05T06:24:21;6.77;;;3.00;;
71046;SDS011;58703;48.978;8.982;2022-08-05T06:26:46;4.18;;;3.15;;
71046;SDS011;58703;48.978;8.982;2022-08-05T06:29:12;3.80;;;2.97;;
71046;SDS011;58703;48.978;8.982;2022-08-05T06:31:39;4.37;;;3.13;;
71046;SDS011;58703;48.978;8.982;2022-08-05T06:34:04;7.40;;;3.20;;
71046;SDS011;58703;48.978;8.982;2022-08-05T06:36:30;4.20;;;2.90;;
71046;SDS011;58703;48.978;8.982;2022-08-05T06:38:56;4.57;;;2.50;;
71046;SDS011;58703;48.978;8.982;2022-08-05T06:41:22;5.63;;;3.10;;
71046;SDS011;58703;48.978;8.982;2022-08-05T06:43:48;4.43;;;3.60;;
71046;SDS011;58703;48.978;8.982;2022-08-05T06:46:14;4.57;;;3.38;;
71046;SDS011;58703;48.978;8.982;2022-08-05T06:48:40;8.52;;;3.10;;
71046;SDS011;58703;48.978;8.982;2022-08-05T06:51:06;5.37;;;3.50;;
71046;SDS011;58703;48.978;8.982;2022-08-05T06:53:32;5.80;;;3.60;;
71046;SDS011;58703;48.978;8.982;2022-08-05T06:55:59;4.40;;;3.65;;
71046;SDS011;58703;48.978;8.982;2022-08-05T06:58:25;4.45;;;3.13;;
71046;SDS011;58703;48.978;8.982;2022-08-05T07:00:51;5.97;;;3.33;;
71046;SDS011;58703;48.978;8.982;2022-08-05T07:03:17;5.30;;;3.80;;
71046;SDS011;58703;48.978;8.982;2022-08-05T07:05:43;6.32;;;3.30;;
71046;SDS011;58703;48.978;8.982;2022-08-05T07:08:09;4.90;;;3.67;;
71046;SDS011;58703;48.978;8.982;2022-08-05T07:10:35;5.75;;;3.88;;
71046;SDS011;58703;48.978;8.982;2022-08-05T07:13:01;5.90;;;3.38;;
71046;SDS011;58703;48.978;8.982;2022-08-05T07:15:45;5.37;;;3.50;;
71046;SDS011;58703;48.978;8.982;2022-08-05T07:18:29;5.30;;;3.75;;
71046;SDS011;58703;48.978;8.982;2022-08-05T07:20:54;5.97;;;3.40;;
71046;SDS011;58703;48.978;8.982;2022-08-05T07:23:20;5.37;;;3.30;;
71046;SDS011;58703;48.978;8.982;2022-08-05T07:25:46;4.53;;;3.60;;
71046;SDS011;58703;48.978;8.982;2022-08-05T07:28:11;7.40;;;3.38;;
71046;SDS011;58703;48.978;8.982;2022-08-05T07:30:37;4.73;;;3.63;;
71046;SDS011;58703;48.978;8.982;2022-08-05T07:33:03;6.05;;;3.00;;
71046;SDS011;58703;48.978;8.982;2022-08-05T07:35:30;3.17;;;2.88;;
71046;SDS011;58703;48.978;8.982;2022-08-05T07:37:56;2.93;;;2.57;;
71046;SDS011;58703;48.978;8.982;2022-08-05T07:40:22;4.80;;;3.03;;
71046;SDS011;58703;48.978;8.982;2022-08-05T07:42:47;3.80;;;2.80;;
71046;SDS011;58703;48.978;8.982;2022-08-05T07:45:13;4.43;;;2.92;;
71046;SDS011;58703;48.978;8.982;2022-08-05T07:47:40;6.20;;;2.88;;
71046;SDS011;58703;48.978;8.982;2022-08-05T07:50:06;5.68;;;2.97;;
71046;SDS011;58703;48.978;8.982;2022-08-05T07:52:39;5.57;;;2.50;;
71046;SDS011;58703;48.978;8.982;2022-08-05T07:55:06;9.60;;;3.47;;
71046;SDS011;58703;48.978;8.982;2022-08-05T07:57:32;5.00;;;3.25;;
71046;SDS011;58703;48.978;8.982;2022-08-05T07:59:58;7.20;;;3.63;;
71046;SDS011;58703;48.978;8.982;2022-08-05T08:02:24;4.70;;;4.13;;
71046;SDS011;58703;48.978;8.982;2022-08-05T08:04:51;6.45;;;3.95;;
71046;SDS011;58703;48.978;8.982;2022-08-05T08:07:17;7.85;;;3.38;;
71046;SDS011;58703;48.978;8.982;2022-08-05T08:09:44;4.57;;;3.00;;
71046;SDS011;58703;48.978;8.982;2022-08-05T08:12:10;6.13;;;3.40;;
71046;SDS011;58703;48.978;8.982;2022-08-05T08:14:43;6.72;;;3.33;;
71046;SDS011;58703;48.978;8.982;2022-08-05T08:17:09;5.25;;;3.20;;
71046;SDS011;58703;48.978;8.982;2022-08-05T08:19:35;5.00;;;3.20;;
71046;SDS011;58703;48.978;8.982;2022-08-05T08:22:06;4.28;;;2.92;;
71046;SDS011;58703;48.978;8.982;2022-08-05T08:24:33;3.88;;;2.90;;
71046;SDS011;58703;48.978;8.982;2022-08-05T08:26:59;3.63;;;2.80;;
71046;SDS011;58703;48.978;8.982;2022-08-05T08:29:25;4.47;;;2.20;;
71046;SDS011;58703;48.978;8.982;2022-08-05T08:31:51;8.37;;;3.20;;
71046;SDS011;58703;48.978;8.982;2022-08-05T08:34:18;4.88;;;2.53;;
71046;SDS011;58703;48.978;8.982;2022-08-05T08:36:45;4.65;;;2.65;;
71046;SDS011;58703;48.978;8.982;2022-08-05T08:39:11;4.40;;;2.57;;
71046;SDS011;58703;48.978;8.982;2022-08-05T08:41:36;4.07;;;2.30;;
71046;SDS011;58703;48.978;8.982;2022-08-05T08:44:07;4.13;;;2.60;;
71046;SDS011;58703;48.978;8.982;2022-08-05T08:46:34;3.23;;;2.43;;
71046;SDS011;58703;48.978;8.982;2022-08-05T08:49:02;4.82;;;2.67;;
71046;SDS011;58703;48.978;8.982;2022-08-05T08:51:32;2.97;;;2.00;;
71046;SDS011;58703;48.978;8.982;2022-08-05T08:54:00;3.80;;;2.60;;
71046;SDS011;58703;48.978;8.982;2022-08-05T08:56:26;2.35;;;1.92;;
71046;SDS011;58703;48.978;8.982;2022-08-05T08:58:53;2.83;;;2.37;;
71046;SDS011;58703;48.978;8.982;2022-08-05T09:01:19;2.72;;;2.05;;
71046;SDS011;58703;48.978;8.982;2022-08-05T09:03:48;2.95;;;1.92;;
71046;SDS011;58703;48.978;8.982;2022-08-05T09:06:15;4.03;;;1.87;;
71046;SDS011;58703;48.978;8.982;2022-08-05T09:08:42;2.33;;;2.13;;
71046;SDS011;58703;48.978;8.982;2022-08-05T09:11:09;3.75;;;2.00;;
71046;SDS011;58703;48.978;8.982;2022-08-05T09:13:38;4.22;;;2.20;;
71046;SDS011;58703;48.978;8.982;2022-08-05T09:16:05;2.30;;;2.08;;
71046;SDS011;58703;48.978;8.982;2022-08-05T09:18:34;2.70;;;1.80;;
71046;SDS011;58703;48.978;8.982;2022-08-05T09:21:02;4.95;;;1.88;;
71046;SDS011;58703;48.978;8.982;2022-08-05T09:23:28;2.38;;;1.90;;
71046;SDS011;58703;48.978;8.982;2022-08-05T09:26:08;4.35;;;1.90;;
71046;SDS011;58703;48.978;8.982;2022-08-05T09:28:36;2.80;;;2.33;;
71046;SDS011;58703;48.978;8.982;2022-08-05T09:31:08;3.17;;;2.10;;
71046;SDS011;58703;48.978;8.982;2022-08-05T09:36:36;7.70;;;2.30;;
71046;SDS011;58703;48.978;8.982;2022-08-05T09:39:17;2.10;;;1.90;;
71046;SDS011;58703;48.978;8.982;2022-08-05T09:42:03;1.93;;;1.60;;
71046;SDS011;58703;48.978;8.982;2022-08-05T09:45:05;2.33;;;2.08;;
71046;SDS011;58703;48.978;8.982;2022-08-05T09:47:25;2.92;;;1.75;;
71046;SDS011;58703;48.978;8.982;2022-08-05T09:49:53;5.30;;;1.90;;
71046;SDS011;58703;48.978;8.982;2022-08-05T09:52:22;4.10;;;1.85;;
71046;SDS011;58703;48.978;8.982;2022-08-05T09:55:08;7.03;;;1.70;;
71046;SDS011;58703;48.978;8.982;2022-08-05T09:57:43;3.50;;;1.48;;
71046;SDS011;58703;48.978;8.982;2022-08-05T10:02:41;1.73;;;1.40;;
71046;SDS011;58703;48.978;8.982;2022-08-05T10:05:27;2.10;;;1.47;;
71046;SDS011;58703;48.978;8.982;2022-08-05T10:07:58;1.98;;;1.63;;
71046;SDS011;58703;48.978;8.982;2022-08-05T10:10:30;3.10;;;1.70;;
71046;SDS011;58703;48.978;8.982;2022-08-05T10:13:02;1.83;;;1.67;;
71046;SDS011;58703;48.978;8.982;2022-08-05T10:15:37;2.55;;;1.38;;
71046;SDS011;58703;48.978;8.982;2022-08-05T10:18:14;2.13;;;1.70;;
71046;SDS011;58703;48.978;8.982;2022-08-05T10:20:56;3.10;;;1.10;;
71046;SDS011;58703;48.978;8.982;2022-08-05T10:23:33;2.42;;;1.40;;
71046;SDS011;58703;48.978;8.982;2022-08-05T10:26:02;3.08;;;1.80;;
71046;SDS011;58703;48.978;8.982;2022-08-05T10:28:34;2.03;;;1.70;;
71046;SDS011;58703;48.978;8.982;2022-08-05T10:31:02;1.67;;;1.57;;
71046;SDS011;58703;48.978;8.982;2022-08-05T10:33:30;2.67;;;1.77;;
71046;SDS011;58703;48.978;8.982;2022-08-05T10:35:58;1.60;;;1.50;;
71046;SDS011;58703;48.978;8.982;2022-08-05T10:38:25;2.40;;;1.60;;
71046;SDS011;58703;48.978;8.982;2022-08-05T10:49:09;3.92;;;1.60;;
71046;SDS011;58703;48.978;8.982;2022-08-05T10:51:42;1.87;;;1.67;;
71046;SDS011;58703;48.978;8.982;2022-08-05T10:54:13;2.25;;;1.63;;
71046;SDS011;58703;48.978;8.982;2022-08-05T10:56:44;2.47;;;1.50;;
71046;SDS011;58703;48.978;8.982;2022-08-05T10:59:16;3.15;;;1.75;;
71046;SDS011;58703;48.978;8.982;2022-08-05T11:01:43;1.60;;;1.50;;
71046;SDS011;58703;48.978;8.982;2022-08-05T11:09:22;2.13;;;1.98;;
71046;SDS011;58703;48.978;8.982;2022-08-05T11:11:51;3.35;;;1.55;;
71046;SDS011;58703;48.978;8.982;2022-08-05T11:14:29;1.83;;;1.60;;
71046;SDS011;58703;48.978;8.982;2022-08-05T11:19:56;3.58;;;1.52;;
71046;SDS011;58703;48.978;8.982;2022-08-05T11:22:45;2.13;;;1.40;;
71046;SDS011;58703;48.978;8.982;2022-08-05T11:33:33;1.95;;;1.60;;
71046;SDS011;58703;48.978;8.982;2022-08-05T11:36:01;1.85;;;1.67;;
71046;SDS011;58703;48.978;8.982;2022-08-05T11:41:06;3.33;;;1.60;;
71046;SDS011;58703;48.978;8.982;2022-08-05T11:44:01;4.73;;;2.00;;
71046;SDS011;58703;48.978;8.982;2022-08-05T11:49:13;2.83;;;1.70;;
71046;SDS011;58703;48.978;8.982;2022-08-05T11:51:41;1.70;;;1.52;;
71046;SDS011;58703;48.978;8.982;2022-08-05T11:54:09;1.90;;;1.80;;
71046;SDS011;58703;48.978;8.982;2022-08-05T11:56:43;1.53;;;1.43;;
71046;SDS011;58703;48.978;8.982;2022-08-05T11:59:19;3.33;;;1.70;;
71046;SDS011;58703;48.978;8.982;2022-08-05T12:04:41;2.50;;;1.80;;
71046;SDS011;58703;48.978;8.982;2022-08-05T12:07:12;4.28;;;1.65;;
71046;SDS011;58703;48.978;8.982;2022-08-05T12:09:41;2.53;;;1.80;;
71046;SDS011;58703;48.978;8.982;2022-08-05T12:12:20;1.90;;;1.80;;
71046;SDS011;58703;48.978;8.982;2022-08-05T12:14:47;2.00;;;1.70;;
71046;SDS011;58703;48.978;8.982;2022-08-05T12:17:14;2.10;;;1.90;;
71046;SDS011;58703;48.978;8.982;2022-08-05T12:19:41;2.33;;;1.80;;
71046;SDS011;58703;48.978;8.982;2022-08-05T12:22:10;1.55;;;1.45;;
71046;SDS011;58703;48.978;8.982;2022-08-05T12:24:41;4.53;;;1.50;;
71046;SDS011;58703;48.978;8.982;2022-08-05T12:27:08;3.20;;;1.48;;
71046;SDS011;58703;48.978;8.982;2022-08-05T12:29:34;3.67;;;1.90;;
71046;SDS011;58703;48.978;8.982;2022-08-05T12:32:00;3.13;;;2.10;;
71046;SDS011;58703;48.978;8.982;2022-08-05T12:34:33;3.22;;;1.80;;
71046;SDS011;58703;48.978;8.982;2022-08-05T12:37:06;2.40;;;1.80;;
71046;SDS011;58703;48.978;8.982;2022-08-05T12:39:37;2.57;;;1.83;;
71046;SDS011;58703;48.978;8.982;2022-08-05T12:42:18;1.75;;;1.65;;
71046;SDS011;58703;48.978;8.982;2022-08-05T12:44:45;2.10;;;2.00;;
71046;SDS011;58703;48.978;8.982;2022-08-05T12:47:11;2.00;;;1.58;;
71046;SDS011;58703;48.978;8.982;2022-08-05T12:49:40;3.03;;;2.00;;
71046;SDS011;58703;48.978;8.982;2022-08-05T12:52:16;2.60;;;1.83;;
71046;SDS011;58703;48.978;8.982;2022-08-05T12:54:43;1.63;;;1.50;;
71046;SDS011;58703;48.978;8.982;2022-08-05T12:57:10;1.92;;;1.77;;
71046;SDS011;58703;48.978;8.982;2022-08-05T12:59:45;2.30;;;2.10;;
71046;SDS011;58703;48.978;8.982;2022-08-05T13:02:31;2.05;;;1.83;;
71046;SDS011;58703;48.978;8.982;2022-08-05T13:05:00;2.20;;;2.00;;
71046;SDS011;58703;48.978;8.982;2022-08-05T13:07:30;3.92;;;1.98;;
71046;SDS011;58703;48.978;8.982;2022-08-05T13:09:57;2.10;;;1.90;;
71046;SDS011;58703;48.978;8.982;2022-08-05T13:12:24;3.30;;;2.20;;
71046;SDS011;58703;48.978;8.982;2022-08-05T13:14:57;1.97;;;1.80;;
71046;SDS011;58703;48.978;8.982;2022-08-05T13:17:27;2.53;;;1.63;;
71046;SDS011;58703;48.978;8.982;2022-08-05T13:20:13;1.70;;;1.60;;
71046;SDS011;58703;48.978;8.982;2022-08-05T13:22:41;4.20;;;2.08;;
71046;SDS011;58703;48.978;8.982;2022-08-05T13:25:13;3.60;;;1.88;;
71046;SDS011;58703;48.978;8.982;2022-08-05T13:27:40;3.20;;;1.83;;
71046;SDS011;58703;48.978;8.982;2022-08-05T13:30:10;4.03;;;2.40;;
71046;SDS011;58703;48.978;8.982;2022-08-05T13:32:37;3.25;;;2.28;;
71046;SDS011;58703;48.978;8.982;2022-08-05T13:35:04;2.08;;;1.70;;
71046;SDS011;58703;48.978;8.982;2022-08-05T13:37:31;2.47;;;2.10;;
71046;SDS011;58703;48.978;8.982;2022-08-05T13:39:57;2.10;;;1.90;;
71046;SDS011;58703;48.978;8.982;2022-08-05T13:42:23;2.25;;;2.00;;
71046;SDS011;58703;48.978;8.982;2022-08-05T13:44:54;2.63;;;2.10;;
71046;SDS011;58703;48.978;8.982;2022-08-05T13:47:21;2.67;;;2.38;;
71046;SDS011;58703;48.978;8.982;2022-08-05T13:49:47;1.80;;;1.70;;
71046;SDS011;58703;48.978;8.982;2022-08-05T13:52:14;2.50;;;2.10;;
71046;SDS011;58703;48.978;8.982;2022-08-05T13:54:42;3.00;;;2.22;;
71046;SDS011;58703;48.978;8.982;2022-08-05T13:57:09;2.30;;;2.10;;
71046;SDS011;58703;48.978;8.982;2022-08-05T13:59:36;2.80;;;2.55;;
71046;SDS011;58703;48.978;8.982;2022-08-05T14:02:05;2.57;;;2.13;;
71046;SDS011;58703;48.978;8.982;2022-08-05T14:04:37;2.28;;;2.10;;
71046;SDS011;58703;48.978;8.982;2022-08-05T14:07:24;4.20;;;2.42;;
71046;SDS011;58703;48.978;8.982;2022-08-05T14:09:51;2.40;;;2.20;;
71046;SDS011;58703;48.978;8.982;2022-08-05T14:12:17;3.70;;;2.97;;
71046;SDS011;58703;48.978;8.982;2022-08-05T14:14:44;3.72;;;2.80;;
71046;SDS011;58703;48.978;8.982;2022-08-05T14:17:10;3.53;;;3.22;;
71046;SDS011;58703;48.978;8.982;2022-08-05T14:19:36;5.40;;;2.80;;
71046;SDS011;58703;48.978;8.982;2022-08-05T14:22:02;4.25;;;2.85;;
71046;SDS011;58703;48.978;8.982;2022-08-05T14:24:28;4.07;;;3.20;;
71046;SDS011;58703;48.978;8.982;2022-08-05T14:26:53;4.10;;;3.10;;
71046;SDS011;58703;48.978;8.982;2022-08-05T14:29:19;3.60;;;3.30;;
71046;SDS011;58703;48.978;8.982;2022-08-05T14:31:45;4.57;;;3.38;;
71046;SDS011;58703;48.978;8.982;2022-08-05T14:34:11;4.73;;;3.00;;
71046;SDS011;58703;48.978;8.982;2022-08-05T14:36:38;3.22;;;2.90;;
71046;SDS011;58703;48.978;8.982;2022-08-05T14:39:04;3.60;;;3.23;;
71046;SDS011;58703;48.978;8.982;2022-08-05T14:41:30;3.17;;;2.40;;
71046;SDS011;58703;48.978;8.982;2022-08-05T14:43:56;3.75;;;3.45;;
71046;SDS011;58703;48.978;8.982;2022-08-05T14:46:23;3.20;;;2.72;;
71046;SDS011;58703;48.978;8.982;2022-08-05T14:48:50;4.95;;;2.88;;
71046;SDS011;58703;48.978;8.982;2022-08-05T14:51:16;3.10;;;2.90;;
71046;SDS011;58703;48.978;8.982;2022-08-05T14:53:42;4.68;;;2.90;;
71046;SDS011;58703;48.978;8.982;2022-08-05T14:56:07;5.37;;;2.60;;
71046;SDS011;58703;48.978;8.982;2022-08-05T14:58:33;3.25;;;2.80;;
71046;SDS011;58703;48.978;8.982;2022-08-05T15:00:59;3.33;;;3.00;;
71046;SDS011;58703;48.978;8.982;2022-08-05T15:03:25;3.75;;;2.80;;
71046;SDS011;58703;48.978;8.982;2022-08-05T15:05:56;3.75;;;2.97;;
71046;SDS011;58703;48.978;8.982;2022-08-05T15:08:22;4.23;;;3.10;;
71046;SDS011;58703;48.978;8.982;2022-08-05T15:10:49;2.78;;;2.58;;
71046;SDS011;58703;48.978;8.982;2022-08-05T15:13:16;2.90;;;2.70;;
71046;SDS011;58703;48.978;8.982;2022-08-05T15:15:41;3.53;;;3.10;;
71046;SDS011;58703;48.978;8.982;2022-08-05T15:18:07;3.47;;;2.87;;
71046;SDS011;58703;48.978;8.982;2022-08-05T15:20:33;4.77;;;2.73;;
71046;SDS011;58703;48.978;8.982;2022-08-05T15:23:05;5.30;;;2.97;;
71046;SDS011;58703;48.978;8.982;2022-08-05T15:25:34;5.88;;;3.50;;
71046;SDS011;58703;48.978;8.982;2022-08-05T15:28:01;5.00;;;2.65;;
71046;SDS011;58703;48.978;8.982;2022-08-05T15:30:28;3.87;;;3.07;;
71046;SDS011;58703;48.978;8.982;2022-08-05T15:32:56;3.10;;;2.80;;
71046;SDS011;58703;48.978;8.982;2022-08-05T15:35:24;4.05;;;2.70;;
71046;SDS011;58703;48.978;8.982;2022-08-05T15:37:51;2.80;;;2.50;;
71046;SDS011;58703;48.978;8.982;2022-08-05T15:40:17;4.63;;;2.53;;
71046;SDS011;58703;48.978;8.982;2022-08-05T15:42:44;3.17;;;2.50;;
71046;SDS011;58703;48.978;8.982;2022-08-05T15:45:11;3.63;;;2.38;;
71046;SDS011;58703;48.978;8.982;2022-08-05T15:47:38;3.13;;;2.58;;
71046;SDS011;58703;48.978;8.982;2022-08-05T15:50:08;2.83;;;2.63;;